sensor_id;sensor_type;location;lat;lon;timestamp;P1;durP1;ratioP1;P2;durP2;ratioP2
1128;SDS011;553;51.038;7.216;2022-09-12T00:00:39;35.50;;;22.50;;
1128;SDS011;553;51.038;7.216;2022-09-12T00:03:06;37.23;;;21.53;;
1128;SDS011;553;51.038;7.216;2022-09-12T00:05:33;35.10;;;23.67;;
1128;SDS011;553;51.038;7.216;2022-09-12T00:08:05;37.43;;;22.47;;
1128;SDS011;553;51.038;7.216;2022-09-12T00:10:32;39.33;;;24.50;;
1128;SDS011;553;51.038;7.216;2022-09-12T00:12:59;40.57;;;24.20;;
1128;SDS011;553;51.038;7.216;2022-09-12T00:15:25;35.60;;;22.50;;
1128;SDS011;553;51.038;7.216;2022-09-12T00:17:52;32.77;;;23.73;;
1128;SDS011;553;51.038;7.216;2022-09-12T00:20:18;36.83;;;23.07;;
1128;SDS011;553;51.038;7.216;2022-09-12T00:22:45;40.50;;;24.77;;
1128;SDS011;553;51.038;7.216;2022-09-12T00:25:12;37.73;;;22.80;;
1128;SDS011;553;51.038;7.216;2022-09-12T00:27:38;38.03;;;25.20;;
1128;SDS011;553;51.038;7.216;2022-09-12T00:30:05;34.90;;;21.30;;
1128;SDS011;553;51.038;7.216;2022-09-12T00:32:32;34.30;;;22.17;;
1128;SDS011;553;51.038;7.216;2022-09-12T00:34:59;37.53;;;23.83;;
1128;SDS011;553;51.038;7.216;2022-09-12T00:37:27;37.87;;;22.10;;
1128;SDS011;553;51.038;7.216;2022-09-12T00:39:54;35.00;;;22.77;;
1128;SDS011;553;51.038;7.216;2022-09-12T00:42:21;37.87;;;23.10;;
1128;SDS011;553;51.038;7.216;2022-09-12T00:44:49;35.43;;;23.00;;
1128;SDS011;553;51.038;7.216;2022-09-12T00:47:24;40.40;;;24.03;;
1128;SDS011;553;51.038;7.216;2022-09-12T00:50:04;33.70;;;22.20;;
1128;SDS011;553;51.038;7.216;2022-09-12T00:52:36;34.40;;;22.10;;
1128;SDS011;553;51.038;7.216;2022-09-12T00:55:12;31.10;;;21.73;;
1128;SDS011;553;51.038;7.216;2022-09-12T01:00:48;33.93;;;21.93;;
1128;SDS011;553;51.038;7.216;2022-09-12T01:03:16;33.53;;;21.30;;
1128;SDS011;553;51.038;7.216;2022-09-12T01:05:58;34.20;;;21.33;;
1128;SDS011;553;51.038;7.216;2022-09-12T01:08:34;31.47;;;21.03;;
1128;SDS011;553;51.038;7.216;2022-09-12T01:11:03;29.70;;;20.50;;
1128;SDS011;553;51.038;7.216;2022-09-12T01:13:32;28.10;;;19.87;;
1128;SDS011;553;51.038;7.216;2022-09-12T01:16:01;30.40;;;19.70;;
1128;SDS011;553;51.038;7.216;2022-09-12T01:21:14;31.43;;;21.17;;
1128;SDS011;553;51.038;7.216;2022-09-12T01:24:06;28.90;;;20.40;;
1128;SDS011;553;51.038;7.216;2022-09-12T01:32:45;32.83;;;19.70;;
1128;SDS011;553;51.038;7.216;2022-09-12T01:38:35;26.90;;;19.13;;
1128;SDS011;553;51.038;7.216;2022-09-12T01:46:27;29.73;;;17.57;;
1128;SDS011;553;51.038;7.216;2022-09-12T01:51:45;28.80;;;19.80;;
1128;SDS011;553;51.038;7.216;2022-09-12T01:54:28;26.30;;;19.03;;
1128;SDS011;553;51.038;7.216;2022-09-12T01:57:01;27.60;;;19.10;;
1128;SDS011;553;51.038;7.216;2022-09-12T01:59:38;34.80;;;19.80;;
1128;SDS011;553;51.038;7.216;2022-09-12T02:02:10;27.87;;;17.73;;
1128;SDS011;553;51.038;7.216;2022-09-12T02:04:58;26.47;;;18.73;;
1128;SDS011;553;51.038;7.216;2022-09-12T02:07:48;26.53;;;18.47;;
1128;SDS011;553;51.038;7.216;2022-09-12T02:10:26;27.90;;;18.67;;
1128;SDS011;553;51.038;7.216;2022-09-12T02:13:04;29.33;;;19.53;;
1128;SDS011;553;51.038;7.216;2022-09-12T02:15:46;28.17;;;18.37;;
1128;SDS011;553;51.038;7.216;2022-09-12T02:18:17;29.60;;;18.97;;
1128;SDS011;553;51.038;7.216;2022-09-12T02:20:46;27.60;;;19.97;;
1128;SDS011;553;51.038;7.216;2022-09-12T02:23:20;27.27;;;18.47;;
1128;SDS011;553;51.038;7.216;2022-09-12T02:25:50;26.87;;;17.87;;
1128;SDS011;553;51.038;7.216;2022-09-12T02:28:39;26.67;;;17.97;;
1128;SDS011;553;51.038;7.216;2022-09-12T02:31:16;25.00;;;18.10;;
1128;SDS011;553;51.038;7.216;2022-09-12T02:37:00;23.03;;;16.73;;
1128;SDS011;553;51.038;7.216;2022-09-12T02:39:29;28.10;;;19.00;;
1128;SDS011;553;51.038;7.216;2022-09-12T02:41:56;26.03;;;17.73;;
1128;SDS011;553;51.038;7.216;2022-09-12T02:44:26;27.77;;;18.23;;
1128;SDS011;553;51.038;7.216;2022-09-12T02:46:56;26.37;;;18.23;;
1128;SDS011;553;51.038;7.216;2022-09-12T02:49:26;23.90;;;17.03;;
1128;SDS011;553;51.038;7.216;2022-09-12T02:51:53;26.07;;;17.00;;
1128;SDS011;553;51.038;7.216;2022-09-12T02:54:20;24.33;;;16.50;;
1128;SDS011;553;51.038;7.216;2022-09-12T02:56:47;28.27;;;17.53;;
1128;SDS011;553;51.038;7.216;2022-09-12T02:59:15;29.60;;;19.30;;
1128;SDS011;553;51.038;7.216;2022-09-12T03:10:42;26.37;;;16.90;;
1128;SDS011;553;51.038;7.216;2022-09-12T03:24:34;25.47;;;16.70;;
1128;SDS011;553;51.038;7.216;2022-09-12T03:29:39;20.70;;;15.57;;
1128;SDS011;553;51.038;7.216;2022-09-12T03:32:07;22.00;;;16.47;;
1128;SDS011;553;51.038;7.216;2022-09-12T03:34:34;20.63;;;14.87;;
1128;SDS011;553;51.038;7.216;2022-09-12T03:37:01;19.33;;;14.50;;
1128;SDS011;553;51.038;7.216;2022-09-12T03:39:27;21.80;;;15.20;;
1128;SDS011;553;51.038;7.216;2022-09-12T03:41:54;19.60;;;14.07;;
1128;SDS011;553;51.038;7.216;2022-09-12T03:44:21;20.80;;;14.57;;
1128;SDS011;553;51.038;7.216;2022-09-12T03:46:48;16.83;;;14.17;;
1128;SDS011;553;51.038;7.216;2022-09-12T03:49:15;20.93;;;14.43;;
1128;SDS011;553;51.038;7.216;2022-09-12T03:51:42;18.07;;;13.53;;
1128;SDS011;553;51.038;7.216;2022-09-12T03:54:10;21.53;;;14.87;;
1128;SDS011;553;51.038;7.216;2022-09-12T03:56:36;16.80;;;13.37;;
1128;SDS011;553;51.038;7.216;2022-09-12T03:59:04;19.10;;;13.57;;
1128;SDS011;553;51.038;7.216;2022-09-12T04:01:32;18.10;;;13.50;;
1128;SDS011;553;51.038;7.216;2022-09-12T04:03:59;16.57;;;13.57;;
1128;SDS011;553;51.038;7.216;2022-09-12T04:06:25;19.30;;;13.97;;
1128;SDS011;553;51.038;7.216;2022-09-12T04:08:53;22.10;;;14.00;;
1128;SDS011;553;51.038;7.216;2022-09-12T04:11:20;20.37;;;14.30;;
1128;SDS011;553;51.038;7.216;2022-09-12T04:13:47;19.97;;;13.70;;
1128;SDS011;553;51.038;7.216;2022-09-12T04:16:15;20.47;;;14.27;;
1128;SDS011;553;51.038;7.216;2022-09-12T04:18:42;20.60;;;14.57;;
1128;SDS011;553;51.038;7.216;2022-09-12T04:21:11;17.50;;;12.93;;
1128;SDS011;553;51.038;7.216;2022-09-12T04:23:39;16.93;;;12.13;;
1128;SDS011;553;51.038;7.216;2022-09-12T04:26:06;19.50;;;14.23;;
1128;SDS011;553;51.038;7.216;2022-09-12T04:28:34;18.90;;;13.07;;
1128;SDS011;553;51.038;7.216;2022-09-12T04:31:02;17.00;;;13.23;;
1128;SDS011;553;51.038;7.216;2022-09-12T04:33:32;19.57;;;14.10;;
1128;SDS011;553;51.038;7.216;2022-09-12T04:36:03;15.43;;;12.60;;
1128;SDS011;553;51.038;7.216;2022-09-12T04:38:34;20.13;;;13.57;;
1128;SDS011;553;51.038;7.216;2022-09-12T04:41:09;16.67;;;12.37;;
1128;SDS011;553;51.038;7.216;2022-09-12T04:43:37;14.43;;;11.20;;
1128;SDS011;553;51.038;7.216;2022-09-12T04:46:04;17.03;;;13.53;;
1128;SDS011;553;51.038;7.216;2022-09-12T04:48:32;16.97;;;13.03;;
1128;SDS011;553;51.038;7.216;2022-09-12T04:51:09;18.13;;;12.57;;
1128;SDS011;553;51.038;7.216;2022-09-12T04:53:41;18.37;;;13.33;;
1128;SDS011;553;51.038;7.216;2022-09-12T04:56:12;17.07;;;12.50;;
1128;SDS011;553;51.038;7.216;2022-09-12T04:58:39;15.10;;;12.40;;
1128;SDS011;553;51.038;7.216;2022-09-12T05:01:06;14.70;;;11.40;;
1128;SDS011;553;51.038;7.216;2022-09-12T05:03:37;14.60;;;11.37;;
1128;SDS011;553;51.038;7.216;2022-09-12T05:06:05;15.67;;;11.30;;
1128;SDS011;553;51.038;7.216;2022-09-12T05:08:33;13.40;;;11.50;;
1128;SDS011;553;51.038;7.216;2022-09-12T05:11:02;16.80;;;11.50;;
1128;SDS011;553;51.038;7.216;2022-09-12T05:13:33;16.77;;;11.80;;
1128;SDS011;553;51.038;7.216;2022-09-12T05:16:01;16.20;;;12.43;;
1128;SDS011;553;51.038;7.216;2022-09-12T05:18:33;14.53;;;11.27;;
1128;SDS011;553;51.038;7.216;2022-09-12T05:21:01;14.87;;;11.30;;
1128;SDS011;553;51.038;7.216;2022-09-12T05:23:31;16.37;;;10.90;;
1128;SDS011;553;51.038;7.216;2022-09-12T05:25:59;15.30;;;10.60;;
1128;SDS011;553;51.038;7.216;2022-09-12T05:28:28;14.83;;;11.53;;
1128;SDS011;553;51.038;7.216;2022-09-12T05:31:00;13.97;;;10.70;;
1128;SDS011;553;51.038;7.216;2022-09-12T05:33:27;14.20;;;11.20;;
1128;SDS011;553;51.038;7.216;2022-09-12T05:35:54;12.10;;;10.53;;
1128;SDS011;553;51.038;7.216;2022-09-12T05:38:21;16.03;;;11.67;;
1128;SDS011;553;51.038;7.216;2022-09-12T05:40:50;15.40;;;11.50;;
1128;SDS011;553;51.038;7.216;2022-09-12T05:43:17;15.97;;;11.40;;
1128;SDS011;553;51.038;7.216;2022-09-12T05:45:45;14.90;;;10.90;;
1128;SDS011;553;51.038;7.216;2022-09-12T05:48:12;14.27;;;11.17;;
1128;SDS011;553;51.038;7.216;2022-09-12T05:50:39;11.47;;;9.83;;
1128;SDS011;553;51.038;7.216;2022-09-12T05:53:07;13.23;;;10.40;;
1128;SDS011;553;51.038;7.216;2022-09-12T05:55:34;16.97;;;11.73;;
1128;SDS011;553;51.038;7.216;2022-09-12T05:58:01;17.33;;;11.50;;
1128;SDS011;553;51.038;7.216;2022-09-12T06:00:27;14.37;;;10.47;;
1128;SDS011;553;51.038;7.216;2022-09-12T06:02:58;14.10;;;10.40;;
1128;SDS011;553;51.038;7.216;2022-09-12T06:05:26;13.40;;;10.20;;
1128;SDS011;553;51.038;7.216;2022-09-12T06:07:53;17.03;;;10.03;;
1128;SDS011;553;51.038;7.216;2022-09-12T06:10:19;13.60;;;10.33;;
1128;SDS011;553;51.038;7.216;2022-09-12T06:12:48;13.00;;;10.37;;
1128;SDS011;553;51.038;7.216;2022-09-12T06:15:15;11.40;;;9.77;;
1128;SDS011;553;51.038;7.216;2022-09-12T06:17:42;13.03;;;10.13;;
1128;SDS011;553;51.038;7.216;2022-09-12T06:20:08;15.30;;;10.20;;
1128;SDS011;553;51.038;7.216;2022-09-12T06:22:35;16.10;;;10.10;;
1128;SDS011;553;51.038;7.216;2022-09-12T06:25:02;12.70;;;10.70;;
1128;SDS011;553;51.038;7.216;2022-09-12T06:27:30;11.70;;;10.23;;
1128;SDS011;553;51.038;7.216;2022-09-12T06:29:57;16.07;;;10.20;;
1128;SDS011;553;51.038;7.216;2022-09-12T06:32:24;14.90;;;10.30;;
1128;SDS011;553;51.038;7.216;2022-09-12T06:34:51;14.43;;;9.70;;
1128;SDS011;553;51.038;7.216;2022-09-12T06:37:17;13.80;;;10.03;;
1128;SDS011;553;51.038;7.216;2022-09-12T06:39:45;15.37;;;10.97;;
1128;SDS011;553;51.038;7.216;2022-09-12T06:42:13;12.87;;;10.80;;
1128;SDS011;553;51.038;7.216;2022-09-12T06:44:48;12.60;;;9.73;;
1128;SDS011;553;51.038;7.216;2022-09-12T06:47:15;14.70;;;9.87;;
1128;SDS011;553;51.038;7.216;2022-09-12T06:49:42;15.13;;;10.30;;
1128;SDS011;553;51.038;7.216;2022-09-12T06:52:09;13.73;;;10.37;;
1128;SDS011;553;51.038;7.216;2022-09-12T06:54:35;16.00;;;10.90;;
1128;SDS011;553;51.038;7.216;2022-09-12T06:57:02;12.30;;;9.93;;
1128;SDS011;553;51.038;7.216;2022-09-12T06:59:29;14.77;;;10.60;;
1128;SDS011;553;51.038;7.216;2022-09-12T07:01:56;12.70;;;10.13;;
1128;SDS011;553;51.038;7.216;2022-09-12T07:04:23;12.30;;;9.80;;
1128;SDS011;553;51.038;7.216;2022-09-12T07:06:50;12.73;;;11.40;;
1128;SDS011;553;51.038;7.216;2022-09-12T07:09:16;15.33;;;10.80;;
1128;SDS011;553;51.038;7.216;2022-09-12T07:11:44;13.50;;;10.10;;
1128;SDS011;553;51.038;7.216;2022-09-12T07:14:12;13.87;;;10.97;;
1128;SDS011;553;51.038;7.216;2022-09-12T07:16:39;15.23;;;9.83;;
1128;SDS011;553;51.038;7.216;2022-09-12T07:19:06;14.37;;;10.90;;
1128;SDS011;553;51.038;7.216;2022-09-12T07:21:34;13.00;;;10.90;;
1128;SDS011;553;51.038;7.216;2022-09-12T07:24:08;19.03;;;11.90;;
1128;SDS011;553;51.038;7.216;2022-09-12T07:26:36;15.63;;;12.27;;
1128;SDS011;553;51.038;7.216;2022-09-12T07:29:03;16.20;;;11.87;;
1128;SDS011;553;51.038;7.216;2022-09-12T07:31:50;14.77;;;10.87;;
1128;SDS011;553;51.038;7.216;2022-09-12T07:34:17;15.40;;;11.33;;
1128;SDS011;553;51.038;7.216;2022-09-12T07:36:43;14.63;;;11.50;;
1128;SDS011;553;51.038;7.216;2022-09-12T07:39:10;14.07;;;10.87;;
1128;SDS011;553;51.038;7.216;2022-09-12T07:41:37;13.53;;;10.73;;
1128;SDS011;553;51.038;7.216;2022-09-12T07:44:04;14.87;;;11.33;;
1128;SDS011;553;51.038;7.216;2022-09-12T07:46:32;14.80;;;10.80;;
1128;SDS011;553;51.038;7.216;2022-09-12T07:48:59;12.97;;;10.80;;
1128;SDS011;553;51.038;7.216;2022-09-12T07:51:27;14.30;;;10.40;;
1128;SDS011;553;51.038;7.216;2022-09-12T07:53:55;15.30;;;10.73;;
1128;SDS011;553;51.038;7.216;2022-09-12T07:56:24;15.27;;;10.70;;
1128;SDS011;553;51.038;7.216;2022-09-12T07:58:57;15.50;;;11.03;;
1128;SDS011;553;51.038;7.216;2022-09-12T08:01:23;11.60;;;9.70;;
1128;SDS011;553;51.038;7.216;2022-09-12T08:03:57;12.30;;;10.30;;
1128;SDS011;553;51.038;7.216;2022-09-12T08:06:25;13.17;;;10.07;;
1128;SDS011;553;51.038;7.216;2022-09-12T08:08:56;12.87;;;10.73;;
1128;SDS011;553;51.038;7.216;2022-09-12T08:11:24;11.80;;;9.50;;
1128;SDS011;553;51.038;7.216;2022-09-12T08:13:53;12.57;;;9.63;;
1128;SDS011;553;51.038;7.216;2022-09-12T08:16:24;12.00;;;9.90;;
1128;SDS011;553;51.038;7.216;2022-09-12T08:18:52;14.03;;;10.87;;
1128;SDS011;553;51.038;7.216;2022-09-12T08:21:20;13.77;;;10.10;;
1128;SDS011;553;51.038;7.216;2022-09-12T08:23:52;13.10;;;9.50;;
1128;SDS011;553;51.038;7.216;2022-09-12T08:26:21;13.30;;;10.67;;
1128;SDS011;553;51.038;7.216;2022-09-12T08:28:48;14.60;;;10.30;;
1128;SDS011;553;51.038;7.216;2022-09-12T08:31:16;12.93;;;9.70;;
1128;SDS011;553;51.038;7.216;2022-09-12T08:33:45;11.93;;;9.40;;
1128;SDS011;553;51.038;7.216;2022-09-12T08:36:19;11.50;;;9.43;;
1128;SDS011;553;51.038;7.216;2022-09-12T08:38:48;10.50;;;9.20;;
1128;SDS011;553;51.038;7.216;2022-09-12T08:43:58;10.73;;;8.90;;
1128;SDS011;553;51.038;7.216;2022-09-12T08:46:49;11.07;;;9.90;;
1128;SDS011;553;51.038;7.216;2022-09-12T08:52:06;11.97;;;9.13;;
1128;SDS011;553;51.038;7.216;2022-09-12T08:54:40;9.90;;;8.90;;
1128;SDS011;553;51.038;7.216;2022-09-12T08:57:10;10.43;;;9.20;;
1128;SDS011;553;51.038;7.216;2022-09-12T08:59:41;11.30;;;8.53;;
1128;SDS011;553;51.038;7.216;2022-09-12T09:02:27;10.37;;;8.63;;
1128;SDS011;553;51.038;7.216;2022-09-12T09:05:19;8.57;;;7.23;;
1128;SDS011;553;51.038;7.216;2022-09-12T09:08:10;8.40;;;7.43;;
1128;SDS011;553;51.038;7.216;2022-09-12T09:10:48;8.90;;;7.97;;
1128;SDS011;553;51.038;7.216;2022-09-12T09:16:47;8.10;;;6.87;;
1128;SDS011;553;51.038;7.216;2022-09-12T09:19:36;7.30;;;6.57;;
1128;SDS011;553;51.038;7.216;2022-09-12T09:22:15;8.03;;;6.83;;
1128;SDS011;553;51.038;7.216;2022-09-12T09:24:53;8.13;;;6.93;;
1128;SDS011;553;51.038;7.216;2022-09-12T09:27:29;8.17;;;6.17;;
1128;SDS011;553;51.038;7.216;2022-09-12T09:30:13;8.00;;;7.20;;
1128;SDS011;553;51.038;7.216;2022-09-12T09:32:42;7.43;;;6.63;;
1128;SDS011;553;51.038;7.216;2022-09-12T09:35:20;7.60;;;6.80;;
1128;SDS011;553;51.038;7.216;2022-09-12T09:40:53;8.17;;;6.63;;
1128;SDS011;553;51.038;7.216;2022-09-12T09:43:27;7.23;;;6.50;;
1128;SDS011;553;51.038;7.216;2022-09-12T09:45:54;6.57;;;5.97;;
1128;SDS011;553;51.038;7.216;2022-09-12T09:48:33;7.33;;;6.60;;
1128;SDS011;553;51.038;7.216;2022-09-12T09:51:03;7.63;;;6.87;;
1128;SDS011;553;51.038;7.216;2022-09-12T09:56:02;9.13;;;6.67;;
1128;SDS011;553;51.038;7.216;2022-09-12T09:58:51;6.00;;;5.50;;
1128;SDS011;553;51.038;7.216;2022-09-12T10:01:18;7.83;;;7.10;;
1128;SDS011;553;51.038;7.216;2022-09-12T10:03:54;7.43;;;6.10;;
1128;SDS011;553;51.038;7.216;2022-09-12T10:06:22;7.47;;;6.47;;
1128;SDS011;553;51.038;7.216;2022-09-12T10:09:02;6.40;;;5.80;;
1128;SDS011;553;51.038;7.216;2022-09-12T10:11:31;6.17;;;5.23;;
1128;SDS011;553;51.038;7.216;2022-09-12T10:13:58;6.60;;;5.90;;
1128;SDS011;553;51.038;7.216;2022-09-12T10:16:27;6.30;;;4.60;;
1128;SDS011;553;51.038;7.216;2022-09-12T10:18:57;6.90;;;6.30;;
1128;SDS011;553;51.038;7.216;2022-09-12T10:21:45;5.70;;;5.20;;
1128;SDS011;553;51.038;7.216;2022-09-12T10:26:50;6.93;;;5.33;;
1128;SDS011;553;51.038;7.216;2022-09-12T10:29:32;6.03;;;5.30;;
1128;SDS011;553;51.038;7.216;2022-09-12T10:32:05;5.53;;;4.93;;
1128;SDS011;553;51.038;7.216;2022-09-12T10:34:34;6.80;;;5.40;;
1128;SDS011;553;51.038;7.216;2022-09-12T10:37:05;6.37;;;5.77;;
1128;SDS011;553;51.038;7.216;2022-09-12T10:39:33;5.47;;;4.97;;
1128;SDS011;553;51.038;7.216;2022-09-12T10:42:03;5.73;;;4.93;;
1128;SDS011;553;51.038;7.216;2022-09-12T10:44:33;6.60;;;5.27;;
1128;SDS011;553;51.038;7.216;2022-09-12T10:47:22;5.77;;;5.23;;
1128;SDS011;553;51.038;7.216;2022-09-12T10:49:49;6.23;;;5.70;;
1128;SDS011;553;51.038;7.216;2022-09-12T10:52:19;5.77;;;5.27;;
1128;SDS011;553;51.038;7.216;2022-09-12T10:54:49;7.73;;;5.30;;
1128;SDS011;553;51.038;7.216;2022-09-12T11:00:13;4.77;;;4.37;;
1128;SDS011;553;51.038;7.216;2022-09-12T11:02:47;5.20;;;4.50;;
1128;SDS011;553;51.038;7.216;2022-09-12T11:05:21;4.93;;;4.43;;
1128;SDS011;553;51.038;7.216;2022-09-12T11:08:09;3.60;;;3.30;;
1128;SDS011;553;51.038;7.216;2022-09-12T11:10:59;4.90;;;4.40;;
1128;SDS011;553;51.038;7.216;2022-09-12T11:16:32;5.07;;;4.57;;
1128;SDS011;553;51.038;7.216;2022-09-12T11:19:25;4.43;;;4.13;;
1128;SDS011;553;51.038;7.216;2022-09-12T11:24:48;4.30;;;3.90;;
1128;SDS011;553;51.038;7.216;2022-09-12T11:27:37;4.80;;;3.83;;
1128;SDS011;553;51.038;7.216;2022-09-12T11:30:11;3.97;;;3.10;;
1128;SDS011;553;51.038;7.216;2022-09-12T11:35:34;4.70;;;4.30;;
1128;SDS011;553;51.038;7.216;2022-09-12T11:38:51;4.67;;;4.27;;
1128;SDS011;553;51.038;7.216;2022-09-12T11:40:53;4.00;;;3.60;;
1128;SDS011;553;51.038;7.216;2022-09-12T11:49:00;7.90;;;5.10;;
1128;SDS011;553;51.038;7.216;2022-09-12T11:51:53;3.83;;;3.50;;
1128;SDS011;553;51.038;7.216;2022-09-12T11:54:48;4.57;;;4.10;;
1128;SDS011;553;51.038;7.216;2022-09-12T11:57:30;4.30;;;3.90;;
1128;SDS011;553;51.038;7.216;2022-09-12T12:02:47;5.53;;;4.50;;
1128;SDS011;553;51.038;7.216;2022-09-12T12:05:39;4.50;;;4.10;;
1128;SDS011;553;51.038;7.216;2022-09-12T12:08:21;4.83;;;4.13;;
1128;SDS011;553;51.038;7.216;2022-09-12T12:11:08;5.63;;;4.50;;
1128;SDS011;553;51.038;7.216;2022-09-12T12:13:52;4.00;;;3.60;;
1128;SDS011;553;51.038;7.216;2022-09-12T12:16:25;7.10;;;3.57;;
1128;SDS011;553;51.038;7.216;2022-09-12T12:19:00;4.50;;;4.10;;
1128;SDS011;553;51.038;7.216;2022-09-12T12:24:18;4.10;;;3.80;;
1128;SDS011;553;51.038;7.216;2022-09-12T12:52:53;2.83;;;2.63;;
1128;SDS011;553;51.038;7.216;2022-09-12T13:03:58;4.70;;;2.67;;
1128;SDS011;553;51.038;7.216;2022-09-12T13:06:37;6.03;;;3.33;;
1128;SDS011;553;51.038;7.216;2022-09-12T13:09:20;3.10;;;2.90;;
1128;SDS011;553;51.038;7.216;2022-09-12T13:11:59;5.17;;;3.50;;
1128;SDS011;553;51.038;7.216;2022-09-12T13:17:17;3.70;;;3.40;;
1128;SDS011;553;51.038;7.216;2022-09-12T13:22:55;3.23;;;2.93;;
1128;SDS011;553;51.038;7.216;2022-09-12T13:25:29;2.77;;;2.40;;
1128;SDS011;553;51.038;7.216;2022-09-12T13:28:02;3.93;;;2.33;;
1128;SDS011;553;51.038;7.216;2022-09-12T13:30:30;2.60;;;2.40;;
1128;SDS011;553;51.038;7.216;2022-09-12T13:33:07;4.50;;;2.13;;
1128;SDS011;553;51.038;7.216;2022-09-12T13:38:48;2.53;;;2.33;;
1128;SDS011;553;51.038;7.216;2022-09-12T13:44:12;3.90;;;3.00;;
1128;SDS011;553;51.038;7.216;2022-09-12T13:46:42;3.70;;;3.23;;
1128;SDS011;553;51.038;7.216;2022-09-12T13:49:20;5.27;;;3.00;;
1128;SDS011;553;51.038;7.216;2022-09-12T13:52:01;3.17;;;2.67;;
1128;SDS011;553;51.038;7.216;2022-09-12T13:54:28;3.33;;;2.53;;
1128;SDS011;553;51.038;7.216;2022-09-12T13:56:56;1.80;;;1.70;;
1128;SDS011;553;51.038;7.216;2022-09-12T13:59:24;2.00;;;1.80;;
1128;SDS011;553;51.038;7.216;2022-09-12T14:01:51;2.07;;;1.67;;
1128;SDS011;553;51.038;7.216;2022-09-12T14:07:12;2.10;;;1.90;;
1128;SDS011;553;51.038;7.216;2022-09-12T14:09:40;2.57;;;2.37;;
1128;SDS011;553;51.038;7.216;2022-09-12T14:12:22;2.17;;;1.97;;
1128;SDS011;553;51.038;7.216;2022-09-12T14:14:55;2.37;;;2.17;;
1128;SDS011;553;51.038;7.216;2022-09-12T14:17:35;2.40;;;2.10;;
1128;SDS011;553;51.038;7.216;2022-09-12T14:20:06;2.40;;;2.20;;
1128;SDS011;553;51.038;7.216;2022-09-12T14:22:36;2.97;;;1.87;;
1128;SDS011;553;51.038;7.216;2022-09-12T14:25:04;3.10;;;2.10;;
1128;SDS011;553;51.038;7.216;2022-09-12T14:27:52;1.93;;;1.80;;
1128;SDS011;553;51.038;7.216;2022-09-12T14:35:37;3.30;;;2.50;;
1128;SDS011;553;51.038;7.216;2022-09-12T14:40:46;3.27;;;2.43;;
1128;SDS011;553;51.038;7.216;2022-09-12T14:43:28;2.60;;;2.40;;
1128;SDS011;553;51.038;7.216;2022-09-12T14:46:01;2.77;;;2.53;;
1128;SDS011;553;51.038;7.216;2022-09-12T14:48:32;3.07;;;2.27;;
1128;SDS011;553;51.038;7.216;2022-09-12T14:51:01;2.63;;;2.30;;
1128;SDS011;553;51.038;7.216;2022-09-12T14:53:34;2.70;;;2.50;;
1128;SDS011;553;51.038;7.216;2022-09-12T14:56:07;2.50;;;2.30;;
1128;SDS011;553;51.038;7.216;2022-09-12T14:58:40;2.63;;;2.40;;
1128;SDS011;553;51.038;7.216;2022-09-12T15:03:35;3.03;;;2.57;;
1128;SDS011;553;51.038;7.216;2022-09-12T15:06:26;2.77;;;2.57;;
1128;SDS011;553;51.038;7.216;2022-09-12T15:08:58;2.50;;;2.30;;
1128;SDS011;553;51.038;7.216;2022-09-12T15:11:27;2.60;;;2.33;;
1128;SDS011;553;51.038;7.216;2022-09-12T15:13:54;4.83;;;2.60;;
1128;SDS011;553;51.038;7.216;2022-09-12T15:16:20;2.83;;;2.27;;
1128;SDS011;553;51.038;7.216;2022-09-12T15:18:47;2.97;;;2.77;;
1128;SDS011;553;51.038;7.216;2022-09-12T15:21:17;3.10;;;2.57;;
1128;SDS011;553;51.038;7.216;2022-09-12T15:23:48;3.30;;;3.00;;
1128;SDS011;553;51.038;7.216;2022-09-12T15:26:23;2.90;;;2.70;;
1128;SDS011;553;51.038;7.216;2022-09-12T15:28:55;4.13;;;2.93;;
1128;SDS011;553;51.038;7.216;2022-09-12T15:33:54;3.70;;;3.00;;
1128;SDS011;553;51.038;7.216;2022-09-12T15:36:22;4.57;;;3.20;;
1128;SDS011;553;51.038;7.216;2022-09-12T15:38:50;3.70;;;3.10;;
1128;SDS011;553;51.038;7.216;2022-09-12T15:41:18;3.33;;;2.77;;
1128;SDS011;553;51.038;7.216;2022-09-12T15:43:47;3.90;;;2.97;;
1128;SDS011;553;51.038;7.216;2022-09-12T15:46:15;4.33;;;3.30;;
1128;SDS011;553;51.038;7.216;2022-09-12T15:48:43;3.27;;;2.97;;
1128;SDS011;553;51.038;7.216;2022-09-12T15:51:13;3.70;;;3.30;;
1128;SDS011;553;51.038;7.216;2022-09-12T15:53:45;3.70;;;2.97;;
1128;SDS011;553;51.038;7.216;2022-09-12T15:56:14;3.20;;;2.90;;
1128;SDS011;553;51.038;7.216;2022-09-12T15:58:42;5.47;;;3.30;;
1128;SDS011;553;51.038;7.216;2022-09-12T16:01:23;3.00;;;2.70;;
1128;SDS011;553;51.038;7.216;2022-09-12T16:03:51;3.70;;;3.30;;
1128;SDS011;553;51.038;7.216;2022-09-12T16:06:17;5.47;;;3.00;;
1128;SDS011;553;51.038;7.216;2022-09-12T16:08:44;3.40;;;3.10;;
1128;SDS011;553;51.038;7.216;2022-09-12T16:11:21;4.10;;;3.00;;
1128;SDS011;553;51.038;7.216;2022-09-12T16:13:52;3.80;;;3.50;;
1128;SDS011;553;51.038;7.216;2022-09-12T16:16:20;3.60;;;3.30;;
1128;SDS011;553;51.038;7.216;2022-09-12T16:18:48;3.20;;;2.90;;
1128;SDS011;553;51.038;7.216;2022-09-12T16:21:14;3.77;;;3.40;;
1128;SDS011;553;51.038;7.216;2022-09-12T16:23:45;3.10;;;2.90;;
1128;SDS011;553;51.038;7.216;2022-09-12T16:26:13;3.40;;;3.10;;
1128;SDS011;553;51.038;7.216;2022-09-12T16:28:40;3.90;;;3.20;;
1128;SDS011;553;51.038;7.216;2022-09-12T16:31:07;3.50;;;3.10;;
1128;SDS011;553;51.038;7.216;2022-09-12T16:33:37;3.90;;;3.60;;
1128;SDS011;553;51.038;7.216;2022-09-12T16:36:08;4.13;;;3.40;;
1128;SDS011;553;51.038;7.216;2022-09-12T16:38:39;5.10;;;3.50;;
1128;SDS011;553;51.038;7.216;2022-09-12T16:41:08;4.53;;;3.90;;
1128;SDS011;553;51.038;7.216;2022-09-12T16:43:35;4.30;;;3.53;;
1128;SDS011;553;51.038;7.216;2022-09-12T16:46:09;5.13;;;3.50;;
1128;SDS011;553;51.038;7.216;2022-09-12T16:48:56;4.23;;;3.83;;
1128;SDS011;553;51.038;7.216;2022-09-12T16:51:25;3.50;;;3.20;;
1128;SDS011;553;51.038;7.216;2022-09-12T16:53:53;4.30;;;3.40;;
1128;SDS011;553;51.038;7.216;2022-09-12T16:56:21;4.33;;;3.90;;
1128;SDS011;553;51.038;7.216;2022-09-12T16:58:48;3.90;;;3.53;;
1128;SDS011;553;51.038;7.216;2022-09-12T17:01:20;4.63;;;3.73;;
1128;SDS011;553;51.038;7.216;2022-09-12T17:03:56;5.67;;;3.57;;
1128;SDS011;553;51.038;7.216;2022-09-12T17:06:24;4.70;;;3.93;;
1128;SDS011;553;51.038;7.216;2022-09-12T17:08:52;3.67;;;3.27;;
1128;SDS011;553;51.038;7.216;2022-09-12T17:11:24;3.43;;;3.13;;
1128;SDS011;553;51.038;7.216;2022-09-12T17:13:55;3.60;;;3.30;;
1128;SDS011;553;51.038;7.216;2022-09-12T17:16:31;4.20;;;3.80;;
1128;SDS011;553;51.038;7.216;2022-09-12T17:18:59;4.20;;;3.40;;
1128;SDS011;553;51.038;7.216;2022-09-12T17:21:26;3.70;;;3.07;;
1128;SDS011;553;51.038;7.216;2022-09-12T17:23:53;4.50;;;3.70;;
1128;SDS011;553;51.038;7.216;2022-09-12T17:26:19;3.40;;;3.10;;
1128;SDS011;553;51.038;7.216;2022-09-12T17:28:46;4.00;;;3.60;;
1128;SDS011;553;51.038;7.216;2022-09-12T17:31:13;3.70;;;3.37;;
1128;SDS011;553;51.038;7.216;2022-09-12T17:33:40;3.90;;;3.60;;
1128;SDS011;553;51.038;7.216;2022-09-12T17:38:44;4.23;;;3.90;;
1128;SDS011;553;51.038;7.216;2022-09-12T17:41:12;4.20;;;3.33;;
1128;SDS011;553;51.038;7.216;2022-09-12T17:43:44;4.10;;;3.00;;
1128;SDS011;553;51.038;7.216;2022-09-12T17:46:12;4.43;;;3.43;;
1128;SDS011;553;51.038;7.216;2022-09-12T17:48:39;3.70;;;3.40;;
1128;SDS011;553;51.038;7.216;2022-09-12T17:51:10;4.40;;;4.00;;
1128;SDS011;553;51.038;7.216;2022-09-12T17:53:41;4.13;;;3.73;;
1128;SDS011;553;51.038;7.216;2022-09-12T17:56:08;4.43;;;3.60;;
1128;SDS011;553;51.038;7.216;2022-09-12T17:58:35;4.27;;;3.90;;
1128;SDS011;553;51.038;7.216;2022-09-12T18:01:03;4.30;;;3.90;;
1128;SDS011;553;51.038;7.216;2022-09-12T18:03:55;9.60;;;4.20;;
1128;SDS011;553;51.038;7.216;2022-09-12T18:06:24;4.93;;;3.50;;
1128;SDS011;553;51.038;7.216;2022-09-12T18:08:51;4.80;;;4.30;;
1128;SDS011;553;51.038;7.216;2022-09-12T18:11:18;5.20;;;4.00;;
1128;SDS011;553;51.038;7.216;2022-09-12T18:13:44;4.43;;;3.70;;